Time;durP1;ratioP1;P1;durP2;ratioP2;P2;SDS_P1;SDS_P2;PMS_P1;PMS_P2;Temp;Humidity;BMP_temperature;BMP_pressure;BME280_temperature;BME280_humidity;BME280_pressure;Samples;Min_cycle;Max_cycle;Signal;HPM_P1;HPM_P2
2023/05/31 00:00:11;;;;;;;13.20;8.95;;;;;;;-148.88;100.00;-17125.47;4956425;28;20035;-75
2023/05/31 00:02:37;;;;;;;12.40;9.30;;;;;;;-148.88;100.00;-17125.47;4955074;29;20102;-74
2023/05/31 00:05:02;;;;;;;11.63;9.20;;;;;;;-148.88;100.00;-17125.47;4956320;28;20024;-74
2023/05/31 00:07:28;;;;;;;13.75;9.30;;;;;;;-148.88;100.00;-17125.47;4956223;28;20028;-74
2023/05/31 00:09:53;;;;;;;15.38;10.10;;;;;;;-148.88;100.00;-17125.47;4956356;28;20023;-75
2023/05/31 00:12:18;;;;;;;13.27;10.02;;;;;;;-148.88;100.00;-17125.47;4956573;28;20027;-75
2023/05/31 00:14:44;;;;;;;13.43;9.93;;;;;;;-148.88;100.00;-17125.47;4956065;28;20023;-75
2023/05/31 00:17:09;;;;;;;14.52;11.27;;;;;;;-148.88;100.00;-17125.47;4956198;28;20106;-75
2023/05/31 00:19:34;;;;;;;18.88;11.13;;;;;;;-148.88;100.00;-17125.47;4956033;28;20074;-74
2023/05/31 00:22:00;;;;;;;17.67;10.90;;;;;;;-148.88;100.00;-17125.47;4956112;28;20035;-74
2023/05/31 00:24:25;;;;;;;14.70;10.00;;;;;;;-148.88;100.00;-17125.47;4956075;28;20034;-74
2023/05/31 00:26:50;;;;;;;17.23;10.73;;;;;;;-148.88;100.00;-17125.47;4954714;28;20027;-74
2023/05/31 00:29:16;;;;;;;15.30;10.40;;;;;;;-148.88;100.00;-17125.47;4956006;28;20031;-74
2023/05/31 00:31:41;;;;;;;15.68;11.05;;;;;;;-148.88;100.00;-17125.47;4955869;28;20042;-74
2023/05/31 00:34:07;;;;;;;17.33;11.02;;;;;;;-148.88;100.00;-17125.47;4956126;28;20031;-74
2023/05/31 00:36:32;;;;;;;17.13;11.60;;;;;;;-148.88;100.00;-17125.47;4955104;28;20027;-74
2023/05/31 00:38:58;;;;;;;17.45;11.32;;;;;;;-148.88;100.00;-17125.47;4955823;28;20398;-75
2023/05/31 00:41:23;;;;;;;14.98;11.93;;;;;;;-148.88;100.00;-17125.47;4954264;28;20114;-74
2023/05/31 00:43:48;;;;;;;18.50;12.32;;;;;;;-148.88;100.00;-17125.47;4955548;28;20034;-74
2023/05/31 00:46:40;;;;;;;18.58;11.90;;;;;;;-148.88;100.00;-17125.47;4954041;28;20031;-75
2023/05/31 00:49:06;;;;;;;18.33;12.07;;;;;;;-148.88;100.00;-17125.47;4953500;28;20053;-74
2023/05/31 00:51:33;;;;;;;17.40;11.80;;;;;;;-148.88;100.00;-17125.47;4955352;28;20031;-75
2023/05/31 00:54:00;;;;;;;17.25;12.38;;;;;;;-148.88;100.00;-17125.47;4955321;28;20031;-75
2023/05/31 00:56:26;;;;;;;15.48;11.50;;;;;;;-148.88;100.00;-17125.47;4955214;28;20086;-75
2023/05/31 00:58:55;;;;;;;17.30;11.82;;;;;;;-148.88;100.00;-17125.47;4955010;28;20442;-74
2023/05/31 01:01:26;;;;;;;14.93;11.32;;;;;;;-148.88;100.00;-17125.47;4955450;28;20035;-75
2023/05/31 01:03:53;;;;;;;15.18;11.60;;;;;;;-148.88;100.00;-17125.47;4954142;28;20395;-74
2023/05/31 01:06:18;;;;;;;17.55;11.10;;;;;;;-148.88;100.00;-17125.47;4955193;28;20504;-74
2023/05/31 01:08:44;;;;;;;16.08;12.02;;;;;;;-148.88;100.00;-17125.47;4955163;28;20062;-74
2023/05/31 01:11:38;;;;;;;14.55;11.45;;;;;;;-148.88;100.00;-17125.47;4955270;28;20101;-75
2023/05/31 01:14:16;;;;;;;18.00;11.57;;;;;;;-148.88;100.00;-17125.47;4955143;28;20023;-74
2023/05/31 01:16:52;;;;;;;16.45;11.75;;;;;;;-148.88;100.00;-17125.47;4954960;28;20097;-75
2023/05/31 01:19:48;;;;;;;13.77;6.97;;;;;;;-148.88;100.00;-17125.47;4955077;28;20399;-74
2023/05/31 01:22:30;;;;;;;17.98;12.65;;;;;;;-148.88;100.00;-17125.47;4951460;28;20039;-74
2023/05/31 01:25:33;;;;;;;17.33;12.27;;;;;;;-148.88;100.00;-17125.47;4954971;28;20545;-75
2023/05/31 01:28:00;;;;;;;18.13;12.48;;;;;;;-148.88;100.00;-17125.47;4950429;29;20042;-75
2023/05/31 01:30:27;;;;;;;17.42;11.80;;;;;;;-148.88;100.00;-17125.47;4954353;28;20023;-75
2023/05/31 01:32:55;;;;;;;16.60;12.65;;;;;;;-148.88;100.00;-17125.47;4954898;28;20407;-74
2023/05/31 01:35:21;;;;;;;20.98;12.98;;;;;;;-148.88;100.00;-17125.47;4953424;28;20078;-74
2023/05/31 01:37:46;;;;;;;15.23;6.75;;;;;;;-148.88;100.00;-17125.47;4953460;28;20063;-74
2023/05/31 01:40:14;;;;;;;15.65;7.10;;;;;;;-148.88;100.00;-17125.47;4955324;28;20386;-74
2023/05/31 01:42:40;;;;;;;18.02;13.85;;;;;;;-148.88;100.00;-17125.47;4953515;29;20396;-74
2023/05/31 01:45:07;;;;;;;19.95;13.02;;;;;;;-148.88;100.00;-17125.47;4954703;28;20059;-75
2023/05/31 01:47:33;;;;;;;18.23;12.57;;;;;;;-148.88;100.00;-17125.47;4954513;28;20031;-74
2023/05/31 01:49:59;;;;;;;19.75;13.75;;;;;;;-148.88;100.00;-17125.47;4954675;28;20027;-74
2023/05/31 01:52:26;;;;;;;27.90;13.63;;;;;;;-148.88;100.00;-17125.47;4954591;28;20169;-74
2023/05/31 01:54:51;;;;;;;18.40;12.70;;;;;;;-148.88;100.00;-17125.47;4954531;28;20053;-75
2023/05/31 01:57:17;;;;;;;18.95;13.10;;;;;;;-148.88;100.00;-17125.47;4953286;29;20109;-74
2023/05/31 01:59:43;;;;;;;19.00;13.00;;;;;;;-148.88;100.00;-17125.47;4954372;28;20038;-74
2023/05/31 02:02:09;;;;;;;17.85;12.38;;;;;;;-148.88;100.00;-17125.47;4954587;28;20023;-74
2023/05/31 02:04:35;;;;;;;19.77;13.07;;;;;;;-148.88;100.00;-17125.47;4954655;28;20027;-74
2023/05/31 02:07:00;;;;;;;18.90;13.13;;;;;;;-148.88;100.00;-17125.47;4954453;28;20030;-74
2023/05/31 02:09:25;;;;;;;17.27;11.88;;;;;;;-148.88;100.00;-17125.47;4954460;28;20027;-74
2023/05/31 02:11:51;;;;;;;19.45;12.32;;;;;;;-148.88;100.00;-17125.47;4954429;28;20026;-74
2023/05/31 02:14:16;;;;;;;17.88;13.05;;;;;;;-148.88;100.00;-17125.47;4953093;28;20442;-75
2023/05/31 02:16:41;;;;;;;19.85;12.07;;;;;;;-148.88;100.00;-17125.47;4954603;28;20062;-74
2023/05/31 02:19:08;;;;;;;17.83;12.05;;;;;;;-148.88;100.00;-17125.47;4954337;28;20474;-74
2023/05/31 02:21:36;;;;;;;18.80;11.88;;;;;;;-148.88;100.00;-17125.47;4954571;28;20106;-75
2023/05/31 02:24:02;;;;;;;14.52;10.38;;;;;;;-148.88;100.00;-17125.47;4954205;28;20062;-74
2023/05/31 02:26:27;;;;;;;19.92;12.68;;;;;;;-148.88;100.00;-17125.47;4954474;28;20059;-75
2023/05/31 02:28:53;;;;;;;19.48;12.85;;;;;;;-148.88;100.00;-17125.47;4954447;28;20032;-74
2023/05/31 02:31:18;;;;;;;21.35;13.25;;;;;;;-148.88;100.00;-17125.47;4954451;28;20026;-74
2023/05/31 02:33:44;;;;;;;23.38;14.38;;;;;;;-148.88;100.00;-17125.47;4954646;28;20106;-74
2023/05/31 02:36:11;;;;;;;23.40;15.30;;;;;;;-148.88;100.00;-17125.47;4954230;28;20023;-75
2023/05/31 02:38:37;;;;;;;24.17;14.60;;;;;;;-148.88;100.00;-17125.47;4954102;28;20023;-75
2023/05/31 02:41:02;;;;;;;21.48;14.57;;;;;;;-148.88;100.00;-17125.47;4954011;28;20020;-75
2023/05/31 02:43:27;;;;;;;21.45;14.80;;;;;;;-148.88;100.00;-17125.47;4957051;28;20031;-74
2023/05/31 02:45:53;;;;;;;23.15;15.60;;;;;;;-148.88;100.00;-17125.47;4957602;28;20524;-75
2023/05/31 02:48:18;;;;;;;22.95;15.30;;;;;;;-148.88;100.00;-17125.47;4957545;28;20044;-74
2023/05/31 02:50:43;;;;;;;21.70;15.60;;;;;;;-148.88;100.00;-17125.47;4956251;28;20020;-75
2023/05/31 02:53:09;;;;;;;16.92;7.57;;;;;;;-148.88;100.00;-17125.47;4957630;28;20038;-74
2023/05/31 02:55:34;;;;;;;21.27;14.60;;;;;;;-148.88;100.00;-17125.47;4957467;28;20027;-75
2023/05/31 02:58:00;;;;;;;24.00;15.13;;;;;;;-148.88;100.00;-17125.47;4957518;28;20480;-74
2023/05/31 03:00:25;;;;;;;23.30;15.38;;;;;;;-148.88;100.00;-17125.47;4957434;28;20506;-74
2023/05/31 03:02:51;;;;;;;24.98;14.57;;;;;;;-148.88;100.00;-17125.47;4955990;29;20027;-74
2023/05/31 03:05:16;;;;;;;27.10;16.10;;;;;;;-148.88;100.00;-17125.47;4957196;28;20102;-74
2023/05/31 03:07:42;;;;;;;23.08;16.13;;;;;;;-148.88;100.00;-17125.47;4957136;28;20032;-74
2023/05/31 03:10:08;;;;;;;25.63;17.23;;;;;;;-148.88;100.00;-17125.47;4955994;28;20482;-75
2023/05/31 03:12:34;;;;;;;30.48;18.65;;;;;;;-148.88;100.00;-17125.47;4957281;28;20102;-75
2023/05/31 03:15:00;;;;;;;33.67;19.10;;;;;;;-148.88;100.00;-17125.47;4957266;28;20073;-74
2023/05/31 03:17:25;;;;;;;24.83;11.00;;;;;;;-148.88;100.00;-17125.47;4957187;28;20031;-74
2023/05/31 03:19:51;;;;;;;20.88;9.98;;;;;;;-148.88;100.00;-17125.47;4957157;28;20030;-75
2023/05/31 03:22:16;;;;;;;29.98;19.25;;;;;;;-148.88;100.00;-17125.47;4957147;28;20023;-75
2023/05/31 03:24:42;;;;;;;33.15;12.65;;;;;;;-148.88;100.00;-17125.47;4956988;28;20031;-75
2023/05/31 03:27:07;;;;;;;23.08;9.88;;;;;;;-148.88;100.00;-17125.47;4956999;28;20027;-75
2023/05/31 03:29:36;;;;;;;25.55;11.63;;;;;;;-148.88;100.00;-17125.47;4957119;28;20058;-75
2023/05/31 03:32:02;;;;;;;21.15;9.70;;;;;;;-148.88;100.00;-17125.47;4957166;28;20453;-74
2023/05/31 03:34:28;;;;;;;24.23;9.90;;;;;;;-148.88;100.00;-17125.47;4956894;28;20050;-74
2023/05/31 03:36:53;;;;;;;30.92;19.25;;;;;;;-148.88;100.00;-17125.47;4956747;28;20029;-75
2023/05/31 03:39:18;;;;;;;31.20;20.65;;;;;;;-148.88;100.00;-17125.47;4956859;28;20479;-75
2023/05/31 03:41:43;;;;;;;22.20;9.05;;;;;;;-148.88;100.00;-17125.47;4956811;28;20086;-75
2023/05/31 03:44:09;;;;;;;27.98;18.42;;;;;;;-148.88;100.00;-17125.47;4956827;28;20383;-82
2023/05/31 03:46:34;;;;;;;20.08;8.70;;;;;;;-148.88;100.00;-17125.47;4956403;28;20360;-75
2023/05/31 03:49:00;;;;;;;24.83;10.32;;;;;;;-148.88;100.00;-17125.47;4956926;28;20034;-75
2023/05/31 03:51:26;;;;;;;19.63;9.30;;;;;;;-148.88;100.00;-17125.47;4956822;28;20023;-75
2023/05/31 03:53:51;;;;;;;22.05;9.45;;;;;;;-148.88;100.00;-17125.47;4956428;28;20030;-75
2023/05/31 03:56:16;;;;;;;32.72;18.88;;;;;;;-148.88;100.00;-17125.47;4956849;28;20047;-75
2023/05/31 03:58:41;;;;;;;31.80;19.27;;;;;;;-148.88;100.00;-17125.47;4956358;28;20069;-75
2023/05/31 04:01:07;;;;;;;33.70;20.10;;;;;;;-148.88;100.00;-17125.47;4956812;28;20082;-75
2023/05/31 04:03:32;;;;;;;21.88;9.43;;;;;;;-148.88;100.00;-17125.47;4956466;28;20024;-75
2023/05/31 04:05:57;;;;;;;23.13;9.80;;;;;;;-148.88;100.00;-17125.47;4956369;28;20023;-75
2023/05/31 04:08:25;;;;;;;25.58;11.98;;;;;;;-148.88;100.00;-17125.47;4956626;28;20090;-75
2023/05/31 04:10:51;;;;;;;32.50;20.02;;;;;;;-148.88;100.00;-17125.47;4956427;28;20063;-75
2023/05/31 04:13:16;;;;;;;26.98;10.32;;;;;;;-148.88;100.00;-17125.47;4956283;28;20050;-75
2023/05/31 04:15:41;;;;;;;30.60;20.33;;;;;;;-148.88;100.00;-17125.47;4956519;28;20174;-75
2023/05/31 04:18:07;;;;;;;33.55;20.13;;;;;;;-148.88;100.00;-17125.47;4954913;29;20062;-75
2023/05/31 04:20:32;;;;;;;31.63;20.10;;;;;;;-148.88;100.00;-17125.47;4956147;28;20027;-75
2023/05/31 04:22:58;;;;;;;22.67;9.95;;;;;;;-148.88;100.00;-17125.47;4955983;28;20548;-75
2023/05/31 04:25:23;;;;;;;31.80;20.88;;;;;;;-148.88;100.00;-17125.47;4955986;28;20533;-75
2023/05/31 04:27:49;;;;;;;26.65;10.98;;;;;;;-148.88;100.00;-17125.47;4955864;28;20538;-75
2023/05/31 04:30:15;;;;;;;23.27;9.88;;;;;;;-148.88;100.00;-17125.47;4955824;28;20023;-75
2023/05/31 04:32:40;;;;;;;23.45;10.32;;;;;;;-148.88;100.00;-17125.47;4954609;28;20035;-75
2023/05/31 04:35:08;;;;;;;25.13;10.55;;;;;;;-148.88;100.00;-17125.47;4955687;28;20482;-75
2023/05/31 04:37:35;;;;;;;34.58;22.33;;;;;;;-148.88;100.00;-17125.47;4955984;28;20339;-75
2023/05/31 04:40:03;;;;;;;37.80;21.70;;;;;;;-148.88;100.00;-17125.47;4955734;28;20101;-75
2023/05/31 04:42:29;;;;;;;39.05;22.35;;;;;;;-148.88;100.00;-17125.47;4955786;28;20029;-75
2023/05/31 04:44:58;;;;;;;39.20;23.65;;;;;;;-148.88;100.00;-17125.47;4955812;28;20027;-75
2023/05/31 04:47:27;;;;;;;28.90;11.70;;;;;;;-148.88;100.00;-17125.47;4954096;29;20503;-75
2023/05/31 04:49:54;;;;;;;26.58;10.77;;;;;;;-148.88;100.00;-17125.47;4955488;28;20169;-75
2023/05/31 04:52:20;;;;;;;31.15;20.33;;;;;;;-148.88;100.00;-17125.47;4954016;29;20066;-75
2023/05/31 04:54:45;;;;;;;30.77;19.70;;;;;;;-148.88;100.00;-17125.47;4955229;28;20027;-75
2023/05/31 04:57:10;;;;;;;31.38;21.27;;;;;;;-148.88;100.00;-17125.47;4955316;28;20078;-75
2023/05/31 04:59:36;;;;;;;28.90;12.60;;;;;;;-148.88;100.00;-17125.47;4955149;28;20032;-75
2023/05/31 05:02:02;;;;;;;35.85;21.90;;;;;;;-148.88;100.00;-17125.47;4953776;29;20032;-75
2023/05/31 05:04:27;;;;;;;36.72;22.13;;;;;;;-148.88;100.00;-17125.47;4954680;28;20060;-75
2023/05/31 05:06:52;;;;;;;34.85;22.38;;;;;;;-148.88;100.00;-17125.47;4953539;28;20074;-75
2023/05/31 05:09:18;;;;;;;35.97;23.40;;;;;;;-148.88;100.00;-17125.47;4954983;28;20027;-75
2023/05/31 05:11:43;;;;;;;33.15;13.45;;;;;;;-148.88;100.00;-17125.47;4955041;28;20032;-74
2023/05/31 05:14:09;;;;;;;29.55;12.52;;;;;;;-148.88;100.00;-17125.47;4954989;28;20062;-75
2023/05/31 05:16:34;;;;;;;40.72;25.40;;;;;;;-148.88;100.00;-17125.47;4953626;28;20054;-75
2023/05/31 05:19:00;;;;;;;42.85;24.98;;;;;;;-148.88;100.00;-17125.47;4955247;28;20194;-75
2023/05/31 05:21:25;;;;;;;32.80;12.40;;;;;;;-148.88;100.00;-17125.47;4955180;28;20051;-74
2023/05/31 05:23:51;;;;;;;32.13;13.73;;;;;;;-148.88;100.00;-17125.47;4954902;28;20027;-75
2023/05/31 05:26:16;;;;;;;43.00;25.02;;;;;;;-148.88;100.00;-17125.47;4954841;28;20078;-75
2023/05/31 05:28:42;;;;;;;45.10;26.98;;;;;;;-148.88;100.00;-17125.47;4954902;28;20030;-75
2023/05/31 05:31:07;;;;;;;46.50;26.20;;;;;;;-148.88;100.00;-17125.47;4954817;28;20074;-76
2023/05/31 05:33:33;;;;;;;43.63;26.88;;;;;;;-148.88;100.00;-17125.47;4954777;28;20552;-76
2023/05/31 05:35:58;;;;;;;47.92;26.75;;;;;;;-148.88;100.00;-17125.47;4954889;28;20023;-75
2023/05/31 05:38:24;;;;;;;45.88;26.08;;;;;;;-148.88;100.00;-17125.47;4954683;28;20019;-75
2023/05/31 05:40:49;;;;;;;43.67;25.45;;;;;;;-148.88;100.00;-17125.47;4954806;28;20027;-75
2023/05/31 05:43:15;;;;;;;44.28;25.42;;;;;;;-148.88;100.00;-17125.47;4954729;28;20050;-75
2023/05/31 05:45:40;;;;;;;40.53;24.08;;;;;;;-148.88;100.00;-17125.47;4954969;28;20136;-75
2023/05/31 05:48:05;;;;;;;44.42;24.35;;;;;;;-148.88;100.00;-17125.47;4954525;28;20035;-75
2023/05/31 05:50:31;;;;;;;42.58;24.13;;;;;;;-148.88;100.00;-17125.47;4954662;28;20057;-76
2023/05/31 05:52:56;;;;;;;39.75;23.25;;;;;;;-148.88;100.00;-17125.47;4954539;28;20023;-75
2023/05/31 05:55:21;;;;;;;35.78;22.60;;;;;;;-148.88;100.00;-17125.47;4949733;28;20431;-75
2023/05/31 05:57:47;;;;;;;33.45;20.92;;;;;;;-148.88;100.00;-17125.47;4955564;28;20343;-75
2023/05/31 06:00:14;;;;;;;36.00;20.92;;;;;;;-148.88;100.00;-17125.47;4954367;28;20502;-76
2023/05/31 06:02:40;;;;;;;42.65;21.65;;;;;;;-148.88;100.00;-17125.47;4934370;29;20028;-75
2023/05/31 06:05:06;;;;;;;38.78;21.67;;;;;;;-148.88;100.00;-17125.47;4935191;29;20027;-75
2023/05/31 06:07:32;;;;;;;33.20;19.90;;;;;;;-148.88;100.00;-17125.47;4933896;29;20027;-75
2023/05/31 06:09:57;;;;;;;37.30;21.42;;;;;;;-148.88;100.00;-17125.47;4935165;29;20030;-75
2023/05/31 06:12:23;;;;;;;37.38;19.98;;;;;;;-148.88;100.00;-17125.47;4933737;29;20424;-75
2023/05/31 06:14:48;;;;;;;34.38;20.05;;;;;;;-148.88;100.00;-17125.47;4935164;29;20091;-76
2023/05/31 06:17:14;;;;;;;34.15;19.50;;;;;;;-148.88;100.00;-17125.47;4937899;29;20475;-75
2023/05/31 06:19:40;;;;;;;35.92;20.25;;;;;;;-148.88;100.00;-17125.47;4937869;29;20028;-75
2023/05/31 06:22:05;;;;;;;31.02;18.77;;;;;;;-148.88;100.00;-17125.47;4939216;29;20058;-76
2023/05/31 06:24:32;;;;;;;30.73;19.48;;;;;;;-148.88;100.00;-17125.47;4939316;29;20078;-75
2023/05/31 06:26:58;;;;;;;28.63;17.65;;;;;;;-148.88;100.00;-17125.47;4938765;29;20055;-75
2023/05/31 06:29:23;;;;;;;28.48;16.63;;;;;;;-148.88;100.00;-17125.47;4938960;29;20031;-75
2023/05/31 06:31:49;;;;;;;28.27;16.58;;;;;;;-148.88;100.00;-17125.47;4939047;29;20483;-76
2023/05/31 06:34:14;;;;;;;27.08;16.23;;;;;;;-148.88;100.00;-17125.47;4939251;29;20402;-74
2023/05/31 06:36:41;;;;;;;28.40;15.80;;;;;;;-148.88;100.00;-17125.47;4937443;28;20032;-76
2023/05/31 06:39:06;;;;;;;21.85;15.18;;;;;;;-148.88;100.00;-17125.47;4937210;29;20114;-76
2023/05/31 06:41:34;;;;;;;26.75;15.23;;;;;;;-148.88;100.00;-17125.47;4938548;29;20115;-75
2023/05/31 06:44:00;;;;;;;22.60;14.70;;;;;;;-148.88;100.00;-17125.47;4938301;29;20067;-75
2023/05/31 06:46:25;;;;;;;22.75;14.88;;;;;;;-148.88;100.00;-17125.47;4937767;29;20402;-75
2023/05/31 06:48:53;;;;;;;26.83;15.25;;;;;;;-148.88;100.00;-17125.47;4935394;29;20042;-75
2023/05/31 06:51:20;;;;;;;23.08;14.38;;;;;;;-148.88;100.00;-17125.47;4938256;29;20110;-75
2023/05/31 06:53:46;;;;;;;26.13;15.02;;;;;;;-148.88;100.00;-17125.47;4938210;29;20028;-75
2023/05/31 06:56:11;;;;;;;22.08;14.48;;;;;;;-148.88;100.00;-17125.47;4936777;29;20035;-75
2023/05/31 06:58:37;;;;;;;21.05;14.05;;;;;;;-148.88;100.00;-17125.47;4937976;29;20020;-75
2023/05/31 07:01:02;;;;;;;22.05;15.02;;;;;;;-148.88;100.00;-17125.47;4938249;29;20086;-75
2023/05/31 07:03:28;;;;;;;23.33;14.45;;;;;;;-148.88;100.00;-17125.47;4945438;29;20050;-76
2023/05/31 07:05:53;;;;;;;25.10;14.98;;;;;;;-148.88;100.00;-17125.47;4957187;28;20029;-76
2023/05/31 07:08:18;;;;;;;21.75;14.10;;;;;;;-148.88;100.00;-17125.47;4957246;28;20033;-75
2023/05/31 07:10:45;;;;;;;20.98;13.60;;;;;;;-148.88;100.00;-17125.47;4957253;28;20082;-75
2023/05/31 07:13:11;;;;;;;21.20;13.25;;;;;;;-148.88;100.00;-17125.47;4957071;28;20034;-75
2023/05/31 07:15:36;;;;;;;24.98;13.90;;;;;;;-148.88;100.00;-17125.47;4956300;28;20035;-75
2023/05/31 07:18:02;;;;;;;19.75;13.40;;;;;;;-148.88;100.00;-17125.47;4956865;28;20077;-75
2023/05/31 07:20:27;;;;;;;20.10;13.15;;;;;;;-148.88;100.00;-17125.47;4956992;28;20081;-75
2023/05/31 07:22:53;;;;;;;20.92;11.65;;;;;;;-148.88;100.00;-17125.47;4957127;28;20107;-75
2023/05/31 07:25:18;;;;;;;21.85;12.02;;;;;;;-148.88;100.00;-17125.47;4956939;28;20023;-75
2023/05/31 07:27:44;;;;;;;19.35;12.25;;;;;;;-148.88;100.00;-17125.47;4956227;28;20027;-75
2023/05/31 07:30:09;;;;;;;17.35;10.88;;;;;;;-148.88;100.00;-17125.47;4957001;28;20062;-75
2023/05/31 07:32:35;;;;;;;17.00;10.73;;;;;;;-148.88;100.00;-17125.47;4955707;29;20027;-75
2023/05/31 07:35:00;;;;;;;18.90;11.75;;;;;;;-148.88;100.00;-17125.47;4957246;28;20047;-75
2023/05/31 07:37:26;;;;;;;17.55;10.55;;;;;;;-148.88;100.00;-17125.47;4956897;28;20078;-75
2023/05/31 07:39:51;;;;;;;16.55;10.57;;;;;;;-148.88;100.00;-17125.47;4956807;28;20062;-75
2023/05/31 07:42:16;;;;;;;18.17;10.40;;;;;;;-148.88;100.00;-17125.47;4956750;28;20027;-75
2023/05/31 07:44:42;;;;;;;17.45;11.20;;;;;;;-148.88;100.00;-17125.47;4956803;28;20486;-75
2023/05/31 07:47:07;;;;;;;17.30;11.07;;;;;;;-148.88;100.00;-17125.47;4956865;28;20019;-76
2023/05/31 07:49:32;;;;;;;18.08;10.77;;;;;;;-148.88;100.00;-17125.47;4956816;28;20427;-75
2023/05/31 07:51:59;;;;;;;17.95;10.55;;;;;;;-148.88;100.00;-17125.47;4955349;29;20030;-75
2023/05/31 07:54:24;;;;;;;15.93;10.50;;;;;;;-148.88;100.00;-17125.47;4956441;28;20030;-76
2023/05/31 07:56:49;;;;;;;18.63;11.18;;;;;;;-148.88;100.00;-17125.47;4956517;28;20024;-76
2023/05/31 07:59:16;;;;;;;17.15;10.55;;;;;;;-148.88;100.00;-17125.47;4956430;28;20030;-76
2023/05/31 08:01:42;;;;;;;15.13;9.45;;;;;;;-148.88;100.00;-17125.47;4956395;28;20090;-76
2023/05/31 08:04:09;;;;;;;14.93;10.07;;;;;;;-148.88;100.00;-17125.47;4956361;28;20035;-76
2023/05/31 08:06:34;;;;;;;17.27;10.40;;;;;;;-148.88;100.00;-17125.47;4954749;28;20101;-77
2023/05/31 08:09:00;;;;;;;13.77;9.27;;;;;;;-148.88;100.00;-17125.47;4954807;29;20475;-75
2023/05/31 08:11:27;;;;;;;15.15;10.02;;;;;;;-148.88;100.00;-17125.47;4956043;28;20023;-75
2023/05/31 08:13:52;;;;;;;14.57;9.10;;;;;;;-148.88;100.00;-17125.47;4955997;28;20023;-74
2023/05/31 08:16:18;;;;;;;13.93;9.30;;;;;;;-148.88;99.98;-17125.47;4955937;28;20402;-74
2023/05/31 08:18:44;;;;;;;16.10;9.40;;;;;;;-148.88;100.00;-17125.47;4955928;28;20015;-75
2023/05/31 08:21:10;;;;;;;13.02;9.35;;;;;;;-148.88;100.00;-17125.47;4955885;28;20019;-74
2023/05/31 08:23:36;;;;;;;15.63;10.20;;;;;;;-148.88;99.55;-17125.47;4955871;28;20095;-74
2023/05/31 08:26:01;;;;;;;16.75;9.40;;;;;;;-148.88;98.98;-17125.47;4955874;28;20039;-74
2023/05/31 08:28:27;;;;;;;13.35;8.43;;;;;;;-148.88;95.79;-17125.47;4955620;28;20046;-74
2023/05/31 08:30:52;;;;;;;14.80;8.10;;;;;;;-148.88;96.28;-17125.47;4956051;28;20019;-74
2023/05/31 08:33:18;;;;;;;13.27;8.32;;;;;;;-148.88;97.17;-17125.47;4955599;28;20093;-74
2023/05/31 08:35:43;;;;;;;12.57;7.28;;;;;;;-148.88;95.50;-17125.47;4955553;28;20423;-74
2023/05/31 08:38:08;;;;;;;12.80;6.53;;;;;;;-148.88;93.12;-17125.47;4955614;28;20080;-74
2023/05/31 08:40:34;;;;;;;12.45;5.35;;;;;;;-148.88;84.78;-17125.47;4953230;28;20027;-74
2023/05/31 08:43:02;;;;;;;9.90;5.47;;;;;;;-148.88;85.84;-17125.47;4955619;28;20027;-74
2023/05/31 08:45:28;;;;;;;10.27;4.82;;;;;;;-148.88;85.21;-17125.47;4954116;28;20050;-74
2023/05/31 08:48:35;;;;;;;8.93;4.60;;;;;;;-148.88;80.94;-17125.47;4955401;28;20394;-74
2023/05/31 08:51:01;;;;;;;8.88;4.93;;;;;;;-148.88;88.18;-17125.47;4948321;28;20089;-74
2023/05/31 08:53:28;;;;;;;8.27;4.90;;;;;;;-148.88;77.10;-17125.47;4955524;28;20114;-74
2023/05/31 08:55:54;;;;;;;8.13;4.57;;;;;;;-148.88;75.73;-17125.47;4955280;28;20105;-74
2023/05/31 08:58:20;;;;;;;7.97;4.30;;;;;;;-148.88;73.38;-17125.47;4954007;29;20130;-74
2023/05/31 09:00:46;;;;;;;7.82;4.25;;;;;;;-148.88;76.83;-17125.47;4953873;28;20039;-73
2023/05/31 09:03:12;;;;;;;7.72;4.00;;;;;;;-148.88;73.92;-17125.47;4955372;28;20027;-74
2023/05/31 09:05:38;;;;;;;9.32;4.38;;;;;;;-148.88;71.31;-17125.47;4955144;28;20059;-74
2023/05/31 09:08:03;;;;;;;8.50;4.32;;;;;;;-148.88;67.36;-17125.47;4955034;28;20024;-74
2023/05/31 09:10:29;;;;;;;7.10;3.58;;;;;;;-148.88;67.07;-17125.47;4953821;29;20031;-74
2023/05/31 09:12:56;;;;;;;7.43;4.50;;;;;;;-148.88;69.66;-17125.47;4955288;28;20023;-74
2023/05/31 09:15:25;;;;;;;17.33;7.15;;;;;;;-148.88;66.21;-17125.47;4955035;28;20027;-74
2023/05/31 09:17:51;;;;;;;8.57;4.40;;;;;;;-148.88;69.44;-17125.47;4955099;28;20459;-75
2023/05/31 09:20:17;;;;;;;7.95;3.83;;;;;;;-148.88;68.46;-17125.47;4955065;28;20521;-74
2023/05/31 09:22:46;;;;;;;12.10;4.45;;;;;;;-148.88;65.75;-17125.47;4955046;28;20146;-74
2023/05/31 09:25:12;;;;;;;8.77;3.60;;;;;;;-148.88;63.80;-17125.47;4955092;28;20046;-74
2023/05/31 09:27:39;;;;;;;11.70;4.95;;;;;;;-148.88;60.99;-17125.47;4953620;28;20027;-74
2023/05/31 09:30:05;;;;;;;16.17;4.30;;;;;;;-148.88;62.29;-17125.47;4954869;28;20031;-74
2023/05/31 09:32:30;;;;;;;6.90;3.03;;;;;;;-148.88;61.31;-17125.47;4954851;28;20079;-74
2023/05/31 09:35:09;;;;;;;7.55;2.90;;;;;;;-148.88;58.94;-17125.47;4954796;28;20027;-74
2023/05/31 09:37:42;;;;;;;9.45;3.00;;;;;;;-148.88;55.46;-17125.47;4954953;28;20392;-74
2023/05/31 09:40:08;;;;;;;6.47;2.95;;;;;;;-148.88;60.38;-17125.47;4953627;28;20490;-74
2023/05/31 09:42:33;;;;;;;6.80;2.92;;;;;;;-148.88;61.18;-17125.47;4953548;29;20062;-74
2023/05/31 09:44:59;;;;;;;8.65;3.75;;;;;;;-148.88;58.08;-17125.47;4954618;28;20019;-74
2023/05/31 09:47:27;;;;;;;8.40;3.63;;;;;;;-148.88;54.83;-17125.47;4953321;28;20027;-74
2023/05/31 09:49:55;;;;;;;5.63;2.78;;;;;;;-148.88;51.62;-17125.47;4954557;28;20031;-74
2023/05/31 09:52:47;;;;;;;4.68;2.88;;;;;;;-148.88;54.47;-17125.47;4954390;28;20078;-74
2023/05/31 09:55:14;;;;;;;7.60;3.38;;;;;;;-148.88;52.70;-17125.47;4954150;28;20078;-74
2023/05/31 09:57:40;;;;;;;5.80;2.58;;;;;;;-148.88;49.70;-17125.47;4954368;28;20023;-75
2023/05/31 10:00:18;;;;;;;9.23;3.50;;;;;;;-148.88;53.28;-17125.47;4999495;23;20075;-75
2023/05/31 10:02:45;;;;;;;8.82;3.35;;;;;;;-148.88;52.42;-17125.47;5013895;28;20036;-75
2023/05/31 10:05:14;;;;;;;8.38;3.38;;;;;;;-148.88;52.25;-17125.47;5012169;28;20396;-75
2023/05/31 10:07:48;;;;;;;7.25;3.08;;;;;;;-148.88;49.09;-17125.47;5013172;28;20022;-75
2023/05/31 10:10:13;;;;;;;7.03;2.72;;;;;;;-148.88;48.16;-17125.47;5013433;28;20033;-75
2023/05/31 10:12:49;;;;;;;6.30;2.47;;;;;;;-148.88;48.20;-17125.47;5012430;28;20080;-75
2023/05/31 10:15:18;;;;;;;7.15;2.55;;;;;;;-148.88;46.25;-17125.47;5012554;28;20032;-75
2023/05/31 10:17:50;;;;;;;7.80;2.72;;;;;;;-148.88;45.49;-17125.47;5013134;28;20029;-75
2023/05/31 10:20:17;;;;;;;7.90;2.25;;;;;;;-148.88;48.75;-17125.47;5013506;28;20054;-75
2023/05/31 10:22:44;;;;;;;6.50;2.63;;;;;;;-148.88;50.77;-17125.47;5011993;28;20037;-75
2023/05/31 10:25:35;;;;;;;7.82;2.33;;;;;;;-148.88;49.98;-17125.47;5013408;28;20022;-76
2023/05/31 10:28:06;;;;;;;9.35;2.92;;;;;;;-148.88;45.92;-17125.47;5012059;28;20018;-75
2023/05/31 10:30:38;;;;;;;8.68;2.63;;;;;;;-148.88;48.09;-17125.47;5012262;28;20030;-75
2023/05/31 10:33:07;;;;;;;7.20;2.45;;;;;;;-148.88;46.76;-17125.47;5013732;28;20507;-75
2023/05/31 10:35:33;;;;;;;5.97;2.45;;;;;;;-148.88;47.46;-17125.47;5013641;28;20029;-75
2023/05/31 10:38:00;;;;;;;7.63;2.85;;;;;;;-148.88;46.78;-17125.47;5013207;28;20096;-75
2023/05/31 10:40:38;;;;;;;6.68;2.38;;;;;;;-148.88;46.89;-17125.47;5013045;28;20108;-75
2023/05/31 10:43:14;;;;;;;6.35;2.50;;;;;;;-148.88;48.62;-17125.47;5013052;28;20029;-75
2023/05/31 10:45:43;;;;;;;9.25;2.80;;;;;;;-148.88;50.13;-17125.47;5013160;28;20021;-75
2023/05/31 10:48:37;;;;;;;7.15;2.22;;;;;;;-148.88;46.51;-17125.47;5012757;28;20022;-75
2023/05/31 10:51:03;;;;;;;5.85;2.10;;;;;;;-148.88;48.65;-17125.47;5012897;28;20401;-75